KLM743 EHAM-SPJC
Flight info
| Callsign | KLM743 |
|---|---|
| Flight time | N/A |
| Altitude | 32000 |
| Route | IDRID L980 LAM L179 ICTAM M197 ENHAQ DCT GAJIT DCT GAPLI/M083F320 DCT TAMEL DCT 47N015W 43N020W/M083F340 35N030W 31N035W 27N040W 20N050W/M083F360 DCT JTHON/N0487F360 DCT 15N057W DCT BGI DCT ILVAS UM662 EGOSU UP776 LOGON/N0482F380 UP776 ILROL |
| Aircraft | B77W/H-SDE1E2E3FGHIJ2J3J4J5M1RWXY/LB1D1 |
Departure
| Time | 2026-05-05 08:47 |
|---|---|
| Airport | Amsterdam Airport Schiphol (EHAM) |
Arrival
| Time | N/A |
|---|---|
| Airport | Jorge Chávez International Airport (SPJC) |
| Time | Latitude | Longitude | Altitude | Speed | Heading |
|---|---|---|---|---|---|
| 2026-05-05 08:28 | 52.31285 | 4.75583 | 4 ft | 0 kts | 86° |
| 2026-05-05 08:34 | 52.31285 | 4.75580 | 4 ft | 2 kts | 86° |
| 2026-05-05 08:34 | 52.31283 | 4.75539 | 17 ft | 4 kts | 81° |
| 2026-05-05 08:34 | 52.31277 | 4.75498 | 1 ft | 4 kts | 66° |
| 2026-05-05 08:34 | 52.31265 | 4.75467 | 6 ft | 4 kts | 35° |
| 2026-05-05 08:35 | 52.31252 | 4.75457 | 5 ft | 2 kts | 356° |
| 2026-05-05 08:35 | 52.31268 | 4.75456 | 6 ft | 4 kts | 356° |
| 2026-05-05 08:35 | 52.31283 | 4.75454 | 5 ft | 2 kts | 356° |
| 2026-05-05 08:38 | 52.31290 | 4.75454 | 4 ft | 2 kts | 356° |
| 2026-05-05 08:38 | 52.31318 | 4.75451 | 4 ft | 6 kts | 356° |
| 2026-05-05 08:38 | 52.31368 | 4.75446 | 3 ft | 9 kts | 356° |
| 2026-05-05 08:39 | 52.31435 | 4.75441 | 4 ft | 10 kts | 357° |
| 2026-05-05 08:39 | 52.31498 | 4.75393 | 4 ft | 11 kts | 301° |
| 2026-05-05 08:39 | 52.31506 | 4.75263 | 3 ft | 12 kts | 267° |
| 2026-05-05 08:39 | 52.31501 | 4.75117 | 3 ft | 13 kts | 266° |
| 2026-05-05 08:40 | 52.31496 | 4.74969 | 4 ft | 13 kts | 267° |
| 2026-05-05 08:40 | 52.31491 | 4.74819 | 4 ft | 13 kts | 267° |
| 2026-05-05 08:40 | 52.31486 | 4.74670 | 4 ft | 13 kts | 266° |
| 2026-05-05 08:40 | 52.31481 | 4.74523 | 4 ft | 13 kts | 266° |
| 2026-05-05 08:41 | 52.31476 | 4.74373 | 4 ft | 13 kts | 267° |
| 2026-05-05 08:41 | 52.31462 | 4.74226 | 4 ft | 13 kts | 246° |
| 2026-05-05 08:41 | 52.31391 | 4.74140 | 4 ft | 13 kts | 190° |
| 2026-05-05 08:41 | 52.31300 | 4.74130 | 4 ft | 13 kts | 183° |
| 2026-05-05 08:42 | 52.31210 | 4.74122 | 4 ft | 13 kts | 183° |
| 2026-05-05 08:42 | 52.31117 | 4.74112 | 4 ft | 13 kts | 184° |
| 2026-05-05 08:42 | 52.31026 | 4.74103 | 4 ft | 13 kts | 183° |
| 2026-05-05 08:42 | 52.30934 | 4.74095 | 4 ft | 13 kts | 183° |
| 2026-05-05 08:43 | 52.30843 | 4.74087 | 4 ft | 13 kts | 183° |
| 2026-05-05 08:43 | 52.30751 | 4.74080 | 4 ft | 13 kts | 183° |
| 2026-05-05 08:43 | 52.30660 | 4.74072 | 4 ft | 13 kts | 183° |
| 2026-05-05 08:43 | 52.30568 | 4.74064 | 4 ft | 13 kts | 183° |
| 2026-05-05 08:44 | 52.30477 | 4.74056 | 4 ft | 13 kts | 183° |
| 2026-05-05 08:44 | 52.30386 | 4.74044 | 4 ft | 13 kts | 189° |
| 2026-05-05 08:44 | 52.30300 | 4.73991 | 4 ft | 13 kts | 203° |
| 2026-05-05 08:44 | 52.30223 | 4.73914 | 3 ft | 13 kts | 219° |
| 2026-05-05 08:45 | 52.30191 | 4.73804 | 3 ft | 9 kts | 273° |
| 2026-05-05 08:45 | 52.30230 | 4.73744 | 2 ft | 7 kts | 350° |
| 2026-05-05 08:45 | 52.30252 | 4.73744 | 1 ft | 0 kts | 1° |
| 2026-05-05 08:46 | 52.30272 | 4.73745 | 1 ft | 15 kts | 1° |
| 2026-05-05 08:46 | 52.30635 | 4.73780 | 2 ft | 89 kts | 3° |
| 2026-05-05 08:46 | 52.31487 | 4.73856 | 2 ft | 154 kts | 3° |
| 2026-05-05 08:46 | 52.32701 | 4.73927 | 179 ft | 184 kts | 4° |
| 2026-05-05 08:47 | 52.33992 | 4.74010 | 716 ft | 188 kts | 359° |
| 2026-05-05 08:47 | 52.35242 | 4.73482 | 1415 ft | 185 kts | 339° |
| 2026-05-05 08:47 | 52.36449 | 4.72562 | 1766 ft | 198 kts | 340° |
| 2026-05-05 08:47 | 52.37733 | 4.71690 | 2271 ft | 200 kts | 342° |
| 2026-05-05 08:48 | 52.39051 | 4.70858 | 2655 ft | 212 kts | 342° |
| 2026-05-05 08:48 | 52.40499 | 4.69978 | 2875 ft | 230 kts | 342° |
| 2026-05-05 08:48 | 52.42030 | 4.69028 | 3306 ft | 239 kts | 341° |
| 2026-05-05 08:48 | 52.43595 | 4.68043 | 3923 ft | 244 kts | 340° |
| 2026-05-05 08:49 | 52.45161 | 4.66947 | 4462 ft | 247 kts | 327° |
| 2026-05-05 08:49 | 52.46326 | 4.64846 | 4921 ft | 258 kts | 294° |
| 2026-05-05 08:49 | 52.46683 | 4.61954 | 5438 ft | 262 kts | 272° |
| 2026-05-05 08:49 | 52.46706 | 4.58918 | 5975 ft | 269 kts | 271° |
| 2026-05-05 08:50 | 52.46673 | 4.55833 | 6533 ft | 272 kts | 261° |
| 2026-05-05 08:50 | 52.45934 | 4.53002 | 7050 ft | 275 kts | 229° |
| 2026-05-05 08:50 | 52.44453 | 4.51039 | 7643 ft | 275 kts | 212° |
| 2026-05-05 08:50 | 52.42821 | 4.49344 | 8155 ft | 279 kts | 218° |
| 2026-05-05 08:51 | 52.41486 | 4.47035 | 8676 ft | 281 kts | 236° |
| 2026-05-05 08:51 | 52.40393 | 4.44425 | 9342 ft | 282 kts | 237° |
| 2026-05-05 08:51 | 52.39281 | 4.41774 | 9984 ft | 284 kts | 237° |
| 2026-05-05 08:51 | 52.38149 | 4.39083 | 10418 ft | 293 kts | 236° |
| 2026-05-05 08:52 | 52.36948 | 4.36232 | 10577 ft | 314 kts | 236° |
| 2026-05-05 08:52 | 52.35668 | 4.33203 | 10785 ft | 334 kts | 236° |
| 2026-05-05 08:52 | 52.34303 | 4.29982 | 10932 ft | 355 kts | 236° |
| 2026-05-05 08:52 | 52.32868 | 4.26601 | 11419 ft | 365 kts | 236° |
| 2026-05-05 08:53 | 52.31430 | 4.23227 | 12169 ft | 368 kts | 236° |
| 2026-05-05 08:53 | 52.29962 | 4.19785 | 13015 ft | 369 kts | 236° |
| 2026-05-05 08:53 | 52.28490 | 4.16339 | 13828 ft | 373 kts | 236° |
| 2026-05-05 08:53 | 52.26996 | 4.12847 | 14531 ft | 376 kts | 236° |
| 2026-05-05 08:54 | 52.25496 | 4.09343 | 15288 ft | 377 kts | 236° |
| 2026-05-05 08:54 | 52.23987 | 4.05826 | 16025 ft | 380 kts | 236° |
| 2026-05-05 08:54 | 52.22461 | 4.02273 | 16661 ft | 385 kts | 236° |
| 2026-05-05 08:54 | 52.20916 | 3.98677 | 17378 ft | 388 kts | 235° |
| 2026-05-05 08:55 | 52.19360 | 3.95063 | 18068 ft | 392 kts | 235° |
| 2026-05-05 08:55 | 52.17785 | 3.91412 | 18693 ft | 394 kts | 235° |
| 2026-05-05 08:55 | 52.16206 | 3.87757 | 19413 ft | 393 kts | 235° |
| 2026-05-05 08:55 | 52.14651 | 3.84162 | 20391 ft | 386 kts | 235° |
| 2026-05-05 08:56 | 52.13087 | 3.80549 | 20807 ft | 396 kts | 234° |
| 2026-05-05 08:56 | 52.11506 | 3.76904 | 21553 ft | 394 kts | 234° |
| 2026-05-05 08:56 | 52.09903 | 3.73213 | 21847 ft | 404 kts | 234° |
| 2026-05-05 08:56 | 52.08271 | 3.69459 | 22405 ft | 408 kts | 234° |
| 2026-05-05 08:57 | 52.06623 | 3.65673 | 22868 ft | 414 kts | 234° |
| 2026-05-05 08:57 | 52.04949 | 3.61835 | 23301 ft | 419 kts | 234° |
| 2026-05-05 08:57 | 52.03250 | 3.57941 | 23739 ft | 424 kts | 234° |
| 2026-05-05 08:57 | 52.01536 | 3.54020 | 24141 ft | 429 kts | 234° |
| 2026-05-05 08:58 | 51.99794 | 3.50047 | 24520 ft | 433 kts | 234° |
| 2026-05-05 08:58 | 51.98026 | 3.46067 | 24937 ft | 436 kts | 233° |
| 2026-05-05 08:58 | 51.96231 | 3.42103 | 25427 ft | 437 kts | 233° |
| 2026-05-05 08:58 | 51.94421 | 3.38125 | 25916 ft | 439 kts | 233° |
| 2026-05-05 08:59 | 51.92609 | 3.34144 | 26358 ft | 441 kts | 233° |
| 2026-05-05 08:59 | 51.90788 | 3.30135 | 26766 ft | 443 kts | 233° |
| 2026-05-05 08:59 | 51.88957 | 3.26107 | 27191 ft | 445 kts | 233° |
| 2026-05-05 08:59 | 51.87172 | 3.22028 | 27570 ft | 447 kts | 238° |
| 2026-05-05 09:00 | 51.85770 | 3.17519 | 27917 ft | 450 kts | 248° |
| 2026-05-05 09:00 | 51.84767 | 3.12712 | 28303 ft | 453 kts | 254° |
| 2026-05-05 09:00 | 51.84162 | 3.07708 | 28680 ft | 455 kts | 262° |
| 2026-05-05 09:00 | 51.83852 | 3.02599 | 29043 ft | 457 kts | 263° |
| 2026-05-05 09:01 | 51.83567 | 2.97470 | 29395 ft | 458 kts | 263° |
| 2026-05-05 09:01 | 51.83273 | 2.92354 | 29851 ft | 457 kts | 263° |
| 2026-05-05 09:01 | 51.82960 | 2.87255 | 30353 ft | 453 kts | 262° |
| 2026-05-05 09:01 | 51.82635 | 2.82206 | 30762 ft | 452 kts | 262° |
| 2026-05-05 09:02 | 51.82301 | 2.77150 | 31094 ft | 451 kts | 262° |
| 2026-05-05 09:02 | 51.81964 | 2.72110 | 31411 ft | 451 kts | 262° |
| 2026-05-05 09:02 | 51.81625 | 2.67071 | 31738 ft | 451 kts | 262° |
| 2026-05-05 09:02 | 51.81283 | 2.62036 | 31949 ft | 453 kts | 262° |
| 2026-05-05 09:03 | 51.80937 | 2.57019 | 31983 ft | 456 kts | 262° |
| 2026-05-05 09:03 | 51.80233 | 2.46886 | 31988 ft | 451 kts | 262° |
| 2026-05-05 09:04 | 51.79527 | 2.36837 | 32001 ft | 451 kts | 262° |
| 2026-05-05 09:04 | 51.78812 | 2.26751 | 32003 ft | 452 kts | 262° |
| 2026-05-05 09:05 | 51.78127 | 2.16653 | 32016 ft | 453 kts | 263° |
| 2026-05-05 09:05 | 51.77546 | 2.06511 | 32018 ft | 454 kts | 263° |
| 2026-05-05 09:06 | 51.76959 | 1.96340 | 32016 ft | 455 kts | 263° |
| 2026-05-05 09:06 | 51.76348 | 1.86167 | 32003 ft | 455 kts | 263° |
| 2026-05-05 09:07 | 51.75722 | 1.75988 | 32019 ft | 456 kts | 263° |
| 2026-05-05 09:07 | 51.75090 | 1.65812 | 32009 ft | 456 kts | 263° |
| 2026-05-05 09:08 | 51.74444 | 1.55645 | 32007 ft | 456 kts | 263° |
| 2026-05-05 09:08 | 51.73782 | 1.45470 | 32009 ft | 456 kts | 262° |
| 2026-05-05 09:09 | 51.73113 | 1.35307 | 32011 ft | 456 kts | 262° |
| 2026-05-05 09:09 | 51.72437 | 1.25141 | 32015 ft | 456 kts | 262° |
| 2026-05-05 09:10 | 51.71755 | 1.14979 | 32007 ft | 456 kts | 262° |
| 2026-05-05 09:10 | 51.71065 | 1.04815 | 32017 ft | 456 kts | 262° |
| 2026-05-05 09:11 | 51.70382 | 0.94641 | 32020 ft | 456 kts | 262° |
| 2026-05-05 09:11 | 51.69673 | 0.84473 | 32026 ft | 457 kts | 262° |
| 2026-05-05 09:12 | 51.69085 | 0.76020 | 32031 ft | 457 kts | 262° |
| 2026-05-05 09:12 | 51.68212 | 0.64327 | 32024 ft | 457 kts | 262° |
| 2026-05-05 09:13 | 51.67615 | 0.55855 | 32030 ft | 458 kts | 262° |
| 2026-05-05 09:13 | 51.66891 | 0.45671 | 32025 ft | 458 kts | 262° |
| 2026-05-05 09:14 | 51.66140 | 0.35476 | 32025 ft | 458 kts | 261° |
| 2026-05-05 09:14 | 51.65368 | 0.25288 | 32022 ft | 459 kts | 261° |
| 2026-05-05 09:15 | 51.64591 | 0.15085 | 32029 ft | 459 kts | 261° |
| 2026-05-05 09:15 | 51.63573 | 0.04969 | 32035 ft | 459 kts | 258° |
| 2026-05-05 09:16 | 51.62426 | -0.05074 | 32029 ft | 459 kts | 258° |
| 2026-05-05 09:16 | 51.61353 | -0.15203 | 32035 ft | 460 kts | 259° |
| 2026-05-05 09:17 | 51.60509 | -0.25434 | 32030 ft | 461 kts | 261° |
| 2026-05-05 09:17 | 51.59708 | -0.35662 | 32032 ft | 461 kts | 261° |
| 2026-05-05 09:18 | 51.58870 | -0.45874 | 32033 ft | 461 kts | 260° |
| 2026-05-05 09:18 | 51.58003 | -0.56092 | 32030 ft | 461 kts | 260° |
| 2026-05-05 09:19 | 51.57125 | -0.66301 | 32026 ft | 461 kts | 260° |
| 2026-05-05 09:19 | 51.56239 | -0.76500 | 32027 ft | 461 kts | 260° |
| 2026-05-05 09:20 | 51.55344 | -0.86704 | 32028 ft | 461 kts | 259° |
| 2026-05-05 09:20 | 51.54442 | -0.96898 | 32033 ft | 461 kts | 259° |
| 2026-05-05 09:21 | 51.53530 | -1.07119 | 32034 ft | 462 kts | 259° |
| 2026-05-05 09:21 | 51.52456 | -1.17282 | 32032 ft | 461 kts | 253° |
| 2026-05-05 09:22 | 51.50453 | -1.27028 | 32031 ft | 459 kts | 248° |
| 2026-05-05 09:22 | 51.48313 | -1.36688 | 32032 ft | 460 kts | 249° |
| 2026-05-05 09:23 | 51.46197 | -1.46379 | 32030 ft | 461 kts | 249° |
| 2026-05-05 09:23 | 51.44085 | -1.56087 | 32037 ft | 461 kts | 249° |
| 2026-05-05 09:24 | 51.41963 | -1.65797 | 32033 ft | 462 kts | 249° |
| 2026-05-05 09:24 | 51.39830 | -1.75495 | 32033 ft | 462 kts | 248° |
| 2026-05-05 09:25 | 51.37686 | -1.85196 | 32038 ft | 462 kts | 248° |
| 2026-05-05 09:25 | 51.35538 | -1.94887 | 32034 ft | 463 kts | 248° |
| 2026-05-05 09:26 | 51.33420 | -2.04609 | 32037 ft | 464 kts | 250° |
| 2026-05-05 09:26 | 51.31511 | -2.14487 | 32042 ft | 465 kts | 251° |
| 2026-05-05 09:27 | 51.29639 | -2.24397 | 32047 ft | 466 kts | 251° |
| 2026-05-05 09:27 | 51.27735 | -2.34278 | 32054 ft | 466 kts | 250° |
| 2026-05-05 09:28 | 51.25798 | -2.44162 | 32051 ft | 466 kts | 250° |
| 2026-05-05 09:28 | 51.23847 | -2.54033 | 32058 ft | 466 kts | 250° |
| 2026-05-05 09:29 | 51.21888 | -2.63890 | 32064 ft | 466 kts | 250° |
| 2026-05-05 09:29 | 51.19918 | -2.73764 | 32051 ft | 467 kts | 250° |
| 2026-05-05 09:30 | 51.17942 | -2.83620 | 32057 ft | 467 kts | 250° |
| 2026-05-05 09:30 | 51.15957 | -2.93469 | 32052 ft | 467 kts | 250° |
| 2026-05-05 09:31 | 51.13962 | -3.03322 | 32049 ft | 467 kts | 250° |
| 2026-05-05 09:31 | 51.11959 | -3.13159 | 32059 ft | 468 kts | 250° |
| 2026-05-05 09:32 | 51.09946 | -3.23000 | 32064 ft | 468 kts | 250° |
| 2026-05-05 09:32 | 51.07920 | -3.32852 | 32062 ft | 469 kts | 250° |
| 2026-05-05 09:33 | 51.05883 | -3.42711 | 32057 ft | 469 kts | 250° |
| 2026-05-05 09:33 | 51.03838 | -3.52565 | 32060 ft | 470 kts | 250° |
| 2026-05-05 09:34 | 51.01793 | -3.62360 | 32058 ft | 470 kts | 250° |
| 2026-05-05 09:34 | 50.99726 | -3.72219 | 32059 ft | 471 kts | 250° |
| 2026-05-05 09:35 | 50.97650 | -3.82072 | 32062 ft | 471 kts | 250° |
| 2026-05-05 09:35 | 50.94513 | -3.96868 | 32055 ft | 472 kts | 250° |
| 2026-05-05 09:36 | 50.92410 | -4.06731 | 32058 ft | 473 kts | 250° |
| 2026-05-05 09:36 | 50.90293 | -4.16605 | 32063 ft | 474 kts | 250° |
| 2026-05-05 09:37 | 50.88162 | -4.26501 | 32062 ft | 475 kts | 250° |
| 2026-05-05 09:37 | 50.86021 | -4.36393 | 32058 ft | 476 kts | 250° |
| 2026-05-05 09:38 | 50.83863 | -4.46313 | 32057 ft | 476 kts | 250° |
| 2026-05-05 09:38 | 50.81699 | -4.56220 | 32058 ft | 477 kts | 250° |
| 2026-05-05 09:39 | 50.79520 | -4.66144 | 32063 ft | 478 kts | 250° |
| 2026-05-05 09:39 | 50.77331 | -4.76064 | 32059 ft | 478 kts | 249° |
| 2026-05-05 09:40 | 50.75131 | -4.85989 | 32061 ft | 479 kts | 249° |
| 2026-05-05 09:40 | 50.72916 | -4.95930 | 32063 ft | 480 kts | 250° |
| 2026-05-05 09:41 | 50.70688 | -5.05887 | 32066 ft | 482 kts | 250° |
| 2026-05-05 09:41 | 50.68441 | -5.15883 | 32070 ft | 485 kts | 250° |
| 2026-05-05 09:42 | 50.66168 | -5.25941 | 32069 ft | 488 kts | 250° |
| 2026-05-05 09:42 | 50.63877 | -5.36032 | 32066 ft | 490 kts | 250° |
| 2026-05-05 09:43 | 50.61575 | -5.46125 | 32063 ft | 489 kts | 250° |
| 2026-05-05 09:43 | 50.59261 | -5.56223 | 32074 ft | 492 kts | 250° |
| 2026-05-05 09:44 | 50.56926 | -5.66364 | 32072 ft | 494 kts | 250° |
| 2026-05-05 09:44 | 50.54594 | -5.76439 | 32068 ft | 492 kts | 250° |
| 2026-05-05 09:45 | 50.52259 | -5.86481 | 32067 ft | 486 kts | 250° |
| 2026-05-05 09:45 | 50.49943 | -5.96396 | 32087 ft | 486 kts | 250° |
| 2026-05-05 09:46 | 50.47599 | -6.06389 | 32077 ft | 488 kts | 250° |
| 2026-05-05 09:46 | 50.45252 | -6.16348 | 32076 ft | 486 kts | 250° |
| 2026-05-05 09:47 | 50.42892 | -6.26310 | 32073 ft | 487 kts | 250° |
| 2026-05-05 09:47 | 50.40522 | -6.36273 | 32092 ft | 490 kts | 250° |
| 2026-05-05 09:48 | 50.38133 | -6.46271 | 32080 ft | 490 kts | 250° |
| 2026-05-05 09:48 | 50.35735 | -6.56256 | 32095 ft | 492 kts | 250° |
| 2026-05-05 09:49 | 50.33303 | -6.66343 | 32094 ft | 498 kts | 250° |
| 2026-05-05 09:49 | 50.30846 | -6.76480 | 32092 ft | 499 kts | 250° |
| 2026-05-05 09:50 | 50.28376 | -6.86627 | 32091 ft | 499 kts | 251° |
| 2026-05-05 09:50 | 50.25899 | -6.96753 | 32093 ft | 498 kts | 251° |
| 2026-05-05 09:51 | 50.23416 | -7.06861 | 32095 ft | 498 kts | 251° |
| 2026-05-05 09:51 | 50.20926 | -7.16949 | 32097 ft | 498 kts | 251° |
| 2026-05-05 09:52 | 50.18427 | -7.27030 | 32096 ft | 498 kts | 251° |
| 2026-05-05 09:52 | 50.15922 | -7.37088 | 32100 ft | 498 kts | 251° |
| 2026-05-05 09:53 | 50.13402 | -7.47160 | 32106 ft | 498 kts | 251° |
| 2026-05-05 09:53 | 50.10874 | -7.57220 | 32107 ft | 499 kts | 251° |
| 2026-05-05 09:54 | 50.08330 | -7.67300 | 32110 ft | 500 kts | 251° |
| 2026-05-05 09:54 | 50.05775 | -7.77379 | 32110 ft | 501 kts | 251° |
| 2026-05-05 09:55 | 50.03208 | -7.87465 | 32112 ft | 502 kts | 251° |
| 2026-05-05 09:55 | 50.00529 | -7.97480 | 32111 ft | 503 kts | 245° |
| 2026-05-05 09:56 | 49.96852 | -8.06748 | 32112 ft | 506 kts | 234° |
| 2026-05-05 09:56 | 49.93288 | -8.13942 | 32123 ft | 505 kts | 234° |
| 2026-05-05 09:57 | 49.88296 | -8.23974 | 32117 ft | 505 kts | 234° |
| 2026-05-05 09:57 | 49.84029 | -8.32621 | 32117 ft | 505 kts | 234° |
| 2026-05-05 09:58 | 49.80463 | -8.39863 | 32116 ft | 505 kts | 234° |
| 2026-05-05 09:58 | 49.76204 | -8.48495 | 32120 ft | 504 kts | 234° |
| 2026-05-05 09:59 | 49.71964 | -8.57055 | 32123 ft | 504 kts | 234° |
| 2026-05-05 09:59 | 49.67692 | -8.65650 | 32124 ft | 504 kts | 234° |
| 2026-05-05 10:00 | 49.63415 | -8.74224 | 32122 ft | 504 kts | 234° |
| 2026-05-05 10:00 | 49.59130 | -8.82787 | 32124 ft | 504 kts | 234° |
| 2026-05-05 10:01 | 49.54846 | -8.91321 | 32118 ft | 504 kts | 234° |
| 2026-05-05 10:01 | 49.50559 | -8.99834 | 32126 ft | 503 kts | 234° |
| 2026-05-05 10:02 | 49.46260 | -9.08342 | 32132 ft | 503 kts | 234° |
| 2026-05-05 10:02 | 49.41962 | -9.16822 | 32126 ft | 503 kts | 234° |
| 2026-05-05 10:03 | 49.37667 | -9.25270 | 32132 ft | 502 kts | 234° |
| 2026-05-05 10:03 | 49.33364 | -9.33706 | 32141 ft | 502 kts | 234° |
| 2026-05-05 10:04 | 49.29057 | -9.42123 | 32142 ft | 502 kts | 234° |
| 2026-05-05 10:04 | 49.24748 | -9.50517 | 32139 ft | 501 kts | 234° |
| 2026-05-05 10:05 | 49.20432 | -9.58898 | 32138 ft | 501 kts | 234° |
| 2026-05-05 10:05 | 49.16113 | -9.67259 | 32139 ft | 501 kts | 234° |
| 2026-05-05 10:06 | 49.11793 | -9.75595 | 32143 ft | 500 kts | 234° |
| 2026-05-05 10:06 | 49.07474 | -9.83905 | 32138 ft | 500 kts | 234° |
| 2026-05-05 10:07 | 49.03153 | -9.92192 | 32160 ft | 499 kts | 234° |
| 2026-05-05 10:07 | 48.98860 | -10.00399 | 32156 ft | 498 kts | 233° |
| 2026-05-05 10:08 | 48.94539 | -10.08636 | 32141 ft | 498 kts | 233° |
| 2026-05-05 10:08 | 48.90211 | -10.16861 | 32130 ft | 498 kts | 233° |
| 2026-05-05 10:09 | 48.85881 | -10.25064 | 32156 ft | 497 kts | 233° |
| 2026-05-05 10:09 | 48.81552 | -10.33240 | 32157 ft | 496 kts | 233° |
| 2026-05-05 10:10 | 48.77223 | -10.41395 | 32160 ft | 496 kts | 233° |
| 2026-05-05 10:10 | 48.72976 | -10.49605 | 32160 ft | 493 kts | 238° |
| 2026-05-05 10:11 | 48.69572 | -10.58545 | 32171 ft | 489 kts | 245° |
| 2026-05-05 10:11 | 48.66407 | -10.67666 | 32164 ft | 489 kts | 245° |
| 2026-05-05 10:12 | 48.63217 | -10.76744 | 32170 ft | 489 kts | 244° |
| 2026-05-05 10:12 | 48.60110 | -10.85486 | 32171 ft | 488 kts | 244° |
| 2026-05-05 10:13 | 48.56881 | -10.94511 | 32173 ft | 488 kts | 244° |
| 2026-05-05 10:13 | 48.53648 | -11.03519 | 32173 ft | 488 kts | 244° |
| 2026-05-05 10:14 | 48.50415 | -11.12498 | 32175 ft | 487 kts | 244° |
| 2026-05-05 10:14 | 48.47180 | -11.21453 | 32179 ft | 486 kts | 244° |
| 2026-05-05 10:15 | 48.43941 | -11.30391 | 32182 ft | 485 kts | 244° |
| 2026-05-05 10:15 | 48.40705 | -11.39288 | 32183 ft | 485 kts | 244° |
| 2026-05-05 10:16 | 48.37464 | -11.48171 | 32185 ft | 484 kts | 244° |
| 2026-05-05 10:16 | 48.34220 | -11.57031 | 32187 ft | 483 kts | 243° |
| 2026-05-05 10:17 | 48.30976 | -11.65861 | 32189 ft | 482 kts | 243° |
| 2026-05-05 10:17 | 48.27728 | -11.74674 | 32190 ft | 482 kts | 243° |
| 2026-05-05 10:18 | 48.24497 | -11.83409 | 32188 ft | 482 kts | 243° |
| 2026-05-05 10:18 | 48.21240 | -11.92186 | 32192 ft | 482 kts | 243° |
| 2026-05-05 10:19 | 48.17977 | -12.00950 | 32197 ft | 481 kts | 243° |
| 2026-05-05 10:19 | 48.14711 | -12.09696 | 32200 ft | 481 kts | 243° |
| 2026-05-05 10:20 | 48.11437 | -12.18431 | 32200 ft | 481 kts | 243° |
| 2026-05-05 10:20 | 48.08159 | -12.27150 | 32203 ft | 481 kts | 243° |
| 2026-05-05 10:21 | 48.04878 | -12.35847 | 32204 ft | 480 kts | 243° |
| 2026-05-05 10:21 | 48.01592 | -12.44528 | 32204 ft | 480 kts | 243° |
| 2026-05-05 10:22 | 47.98297 | -12.53207 | 32207 ft | 480 kts | 243° |
| 2026-05-05 10:22 | 47.95001 | -12.61858 | 32213 ft | 480 kts | 243° |
| 2026-05-05 10:23 | 47.91697 | -12.70505 | 32214 ft | 480 kts | 243° |
| 2026-05-05 10:23 | 47.88384 | -12.79144 | 32215 ft | 480 kts | 243° |
| 2026-05-05 10:24 | 47.85090 | -12.87708 | 32213 ft | 480 kts | 243° |
| 2026-05-05 10:24 | 47.81747 | -12.96370 | 32220 ft | 479 kts | 243° |
| 2026-05-05 10:25 | 47.78442 | -13.04909 | 32212 ft | 480 kts | 243° |
| 2026-05-05 10:25 | 47.75106 | -13.13496 | 32229 ft | 480 kts | 243° |
| 2026-05-05 10:26 | 47.71767 | -13.22067 | 32230 ft | 480 kts | 243° |
| 2026-05-05 10:26 | 47.68419 | -13.30631 | 32224 ft | 480 kts | 243° |
| 2026-05-05 10:27 | 47.65063 | -13.39190 | 32219 ft | 480 kts | 242° |
| 2026-05-05 10:27 | 47.61702 | -13.47734 | 32230 ft | 480 kts | 242° |
| 2026-05-05 10:28 | 47.58336 | -13.56263 | 32232 ft | 480 kts | 242° |
| 2026-05-05 10:28 | 47.54967 | -13.64775 | 32232 ft | 480 kts | 242° |
| 2026-05-05 10:29 | 47.51586 | -13.73290 | 32238 ft | 480 kts | 242° |
| 2026-05-05 10:29 | 47.48199 | -13.81792 | 32237 ft | 480 kts | 242° |
| 2026-05-05 10:30 | 47.44809 | -13.90275 | 32236 ft | 480 kts | 242° |
| 2026-05-05 10:30 | 47.41408 | -13.98759 | 32243 ft | 480 kts | 242° |
| 2026-05-05 10:31 | 47.38003 | -14.07225 | 32240 ft | 479 kts | 242° |
| 2026-05-05 10:31 | 47.34594 | -14.15676 | 32245 ft | 479 kts | 242° |
| 2026-05-05 10:32 | 47.31176 | -14.24123 | 32246 ft | 480 kts | 242° |
| 2026-05-05 10:32 | 47.27756 | -14.32551 | 32246 ft | 480 kts | 242° |
| 2026-05-05 10:33 | 47.24325 | -14.40978 | 32253 ft | 480 kts | 242° |
| 2026-05-05 10:33 | 47.20892 | -14.49384 | 32251 ft | 480 kts | 242° |
| 2026-05-05 10:34 | 47.17450 | -14.57786 | 32256 ft | 479 kts | 242° |
| 2026-05-05 10:34 | 47.14002 | -14.66176 | 32256 ft | 480 kts | 242° |
| 2026-05-05 10:35 | 47.10575 | -14.74493 | 32261 ft | 480 kts | 242° |
| 2026-05-05 10:35 | 47.07113 | -14.82868 | 32260 ft | 480 kts | 242° |
| 2026-05-05 10:36 | 47.03647 | -14.91231 | 32264 ft | 480 kts | 242° |
| 2026-05-05 10:36 | 46.99990 | -14.99401 | 32263 ft | 483 kts | 234° |
| 2026-05-05 10:37 | 46.95358 | -15.06591 | 32272 ft | 486 kts | 225° |
| 2026-05-05 10:37 | 46.90387 | -15.13310 | 32265 ft | 487 kts | 225° |
| 2026-05-05 10:38 | 46.85416 | -15.20040 | 32270 ft | 487 kts | 225° |
| 2026-05-05 10:38 | 46.80459 | -15.26793 | 32273 ft | 487 kts | 226° |
| 2026-05-05 10:39 | 46.75502 | -15.33555 | 32273 ft | 488 kts | 226° |
| 2026-05-05 10:39 | 46.70543 | -15.40306 | 32276 ft | 488 kts | 226° |
| 2026-05-05 10:40 | 46.65577 | -15.47047 | 32275 ft | 488 kts | 226° |
| 2026-05-05 10:40 | 46.60597 | -15.53785 | 32283 ft | 489 kts | 226° |
| 2026-05-05 10:41 | 46.55613 | -15.60511 | 32281 ft | 489 kts | 225° |
| 2026-05-05 10:41 | 46.50624 | -15.67227 | 32285 ft | 489 kts | 225° |
| 2026-05-05 10:42 | 46.43132 | -15.77279 | 32294 ft | 489 kts | 225° |
| 2026-05-05 10:43 | 46.38128 | -15.83971 | 32287 ft | 489 kts | 225° |
| 2026-05-05 10:43 | 46.33118 | -15.90653 | 32290 ft | 490 kts | 225° |
| 2026-05-05 10:44 | 46.28105 | -15.97322 | 32290 ft | 490 kts | 225° |
| 2026-05-05 10:44 | 46.23932 | -16.02861 | 32294 ft | 490 kts | 225° |
| 2026-05-05 10:45 | 46.18905 | -16.09516 | 32293 ft | 490 kts | 225° |
| 2026-05-05 10:45 | 46.13876 | -16.16158 | 32299 ft | 491 kts | 226° |
| 2026-05-05 10:46 | 46.08834 | -16.22798 | 32295 ft | 491 kts | 226° |
| 2026-05-05 10:46 | 46.03793 | -16.29422 | 32296 ft | 490 kts | 226° |
| 2026-05-05 10:47 | 45.98755 | -16.36023 | 32297 ft | 490 kts | 226° |
| 2026-05-05 10:47 | 45.93720 | -16.42604 | 32301 ft | 490 kts | 226° |
| 2026-05-05 10:48 | 45.88703 | -16.49145 | 32303 ft | 490 kts | 226° |
| 2026-05-05 10:48 | 45.83654 | -16.55710 | 32307 ft | 489 kts | 226° |
| 2026-05-05 10:49 | 45.78609 | -16.62254 | 32297 ft | 489 kts | 225° |
| 2026-05-05 10:49 | 45.73564 | -16.68780 | 32310 ft | 489 kts | 225° |
| 2026-05-05 10:50 | 45.68513 | -16.75299 | 32314 ft | 488 kts | 225° |
| 2026-05-05 10:50 | 45.63466 | -16.81794 | 32306 ft | 488 kts | 225° |
| 2026-05-05 10:51 | 45.58419 | -16.88275 | 32315 ft | 488 kts | 225° |
| 2026-05-05 10:51 | 45.53373 | -16.94737 | 32310 ft | 487 kts | 225° |
| 2026-05-05 10:52 | 45.48326 | -17.01184 | 32316 ft | 487 kts | 225° |
| 2026-05-05 10:52 | 45.43280 | -17.07614 | 32318 ft | 487 kts | 225° |
| 2026-05-05 10:53 | 45.38226 | -17.14038 | 32319 ft | 486 kts | 225° |
| 2026-05-05 10:53 | 45.33178 | -17.20439 | 32322 ft | 486 kts | 225° |
| 2026-05-05 10:54 | 45.28128 | -17.26826 | 32325 ft | 486 kts | 225° |
| 2026-05-05 10:54 | 45.23075 | -17.33201 | 32325 ft | 486 kts | 225° |
| 2026-05-05 10:55 | 45.18021 | -17.39561 | 32327 ft | 486 kts | 225° |
| 2026-05-05 10:55 | 45.12963 | -17.45911 | 32330 ft | 486 kts | 225° |
| 2026-05-05 10:56 | 45.07935 | -17.52208 | 32329 ft | 486 kts | 225° |
| 2026-05-05 10:56 | 45.02873 | -17.58532 | 32329 ft | 486 kts | 225° |
| 2026-05-05 10:57 | 44.97808 | -17.64843 | 32327 ft | 485 kts | 225° |
| 2026-05-05 10:57 | 44.92742 | -17.71140 | 32330 ft | 485 kts | 225° |
| 2026-05-05 10:58 | 44.87674 | -17.77425 | 32334 ft | 485 kts | 224° |
| 2026-05-05 10:58 | 44.82606 | -17.83695 | 32334 ft | 485 kts | 224° |
| 2026-05-05 10:59 | 44.77532 | -17.89957 | 32336 ft | 485 kts | 224° |
| 2026-05-05 10:59 | 44.72455 | -17.96207 | 32337 ft | 485 kts | 224° |
| 2026-05-05 11:00 | 44.67381 | -18.02438 | 32343 ft | 485 kts | 224° |
| 2026-05-05 11:00 | 44.62301 | -18.08662 | 32337 ft | 485 kts | 224° |
| 2026-05-05 11:01 | 44.57219 | -18.14873 | 32342 ft | 485 kts | 224° |
| 2026-05-05 11:01 | 44.52133 | -18.21073 | 32353 ft | 484 kts | 224° |
| 2026-05-05 11:02 | 44.47043 | -18.27264 | 32349 ft | 484 kts | 224° |
| 2026-05-05 11:02 | 44.41949 | -18.33445 | 32331 ft | 485 kts | 224° |
| 2026-05-05 11:03 | 44.36855 | -18.39611 | 32351 ft | 485 kts | 224° |
| 2026-05-05 11:03 | 44.31751 | -18.45775 | 32313 ft | 484 kts | 224° |
| 2026-05-05 11:04 | 44.26650 | -18.51919 | 32315 ft | 484 kts | 224° |
| 2026-05-05 11:04 | 44.21584 | -18.58009 | 32314 ft | 484 kts | 224° |
| 2026-05-05 11:05 | 44.16479 | -18.64130 | 32312 ft | 484 kts | 224° |
| 2026-05-05 11:05 | 44.11378 | -18.70231 | 32315 ft | 484 kts | 224° |
| 2026-05-05 11:06 | 44.06266 | -18.76331 | 32308 ft | 484 kts | 224° |
| 2026-05-05 11:06 | 44.01148 | -18.82425 | 32329 ft | 484 kts | 224° |
| 2026-05-05 11:07 | 43.96025 | -18.88510 | 32331 ft | 484 kts | 223° |
| 2026-05-05 11:07 | 43.90899 | -18.94584 | 32322 ft | 485 kts | 223° |
| 2026-05-05 11:08 | 43.85765 | -19.00653 | 32329 ft | 485 kts | 223° |
| 2026-05-05 11:08 | 43.80631 | -19.06708 | 32325 ft | 485 kts | 223° |
| 2026-05-05 11:09 | 43.75491 | -19.12756 | 32330 ft | 485 kts | 223° |
| 2026-05-05 11:09 | 43.70341 | -19.18801 | 32331 ft | 485 kts | 223° |
| 2026-05-05 11:10 | 43.65194 | -19.24830 | 32340 ft | 486 kts | 223° |
| 2026-05-05 11:10 | 43.60034 | -19.30858 | 32332 ft | 486 kts | 223° |
| 2026-05-05 11:11 | 43.54876 | -19.36871 | 32337 ft | 486 kts | 223° |
| 2026-05-05 11:11 | 43.49712 | -19.42877 | 32335 ft | 486 kts | 223° |
| 2026-05-05 11:12 | 43.44550 | -19.48866 | 32339 ft | 486 kts | 223° |
| 2026-05-05 11:12 | 43.39379 | -19.54853 | 32338 ft | 486 kts | 223° |
| 2026-05-05 11:13 | 43.34206 | -19.60828 | 32340 ft | 486 kts | 223° |
| 2026-05-05 11:13 | 43.29028 | -19.66794 | 32341 ft | 486 kts | 223° |
| 2026-05-05 11:14 | 43.23845 | -19.72754 | 32347 ft | 486 kts | 223° |
| 2026-05-05 11:14 | 43.18655 | -19.78707 | 32347 ft | 487 kts | 223° |
| 2026-05-05 11:15 | 43.13456 | -19.84657 | 32348 ft | 487 kts | 223° |
| 2026-05-05 11:15 | 43.08257 | -19.90595 | 32354 ft | 487 kts | 223° |
| 2026-05-05 11:16 | 43.03052 | -19.96528 | 32347 ft | 487 kts | 223° |
| 2026-05-05 11:16 | 42.98040 | -20.02728 | 32347 ft | 484 kts | 230° |
| 2026-05-05 11:17 | 42.93508 | -20.09508 | 32353 ft | 484 kts | 231° |
| 2026-05-05 11:17 | 42.88976 | -20.16309 | 32353 ft | 484 kts | 231° |
| 2026-05-05 11:18 | 42.84419 | -20.23083 | 32359 ft | 485 kts | 230° |
| 2026-05-05 11:18 | 42.79839 | -20.29841 | 32360 ft | 486 kts | 230° |
| 2026-05-05 11:19 | 42.75249 | -20.36590 | 32358 ft | 486 kts | 230° |
| 2026-05-05 11:19 | 42.70648 | -20.43340 | 32360 ft | 487 kts | 230° |
| 2026-05-05 11:20 | 42.66066 | -20.50049 | 32365 ft | 488 kts | 230° |
| 2026-05-05 11:20 | 42.61447 | -20.56796 | 32364 ft | 488 kts | 230° |
| 2026-05-05 11:21 | 42.56815 | -20.63548 | 32363 ft | 489 kts | 230° |
| 2026-05-05 11:21 | 42.52182 | -20.70285 | 32362 ft | 489 kts | 230° |
| 2026-05-05 11:22 | 42.47534 | -20.77027 | 32367 ft | 489 kts | 230° |
| 2026-05-05 11:22 | 42.42881 | -20.83762 | 32367 ft | 490 kts | 231° |
| 2026-05-05 11:23 | 42.38215 | -20.90498 | 32367 ft | 491 kts | 231° |
| 2026-05-05 11:23 | 42.33538 | -20.97236 | 32372 ft | 491 kts | 231° |
| 2026-05-05 11:24 | 42.28853 | -21.03970 | 32374 ft | 492 kts | 231° |
| 2026-05-05 11:24 | 42.24156 | -21.10705 | 32371 ft | 493 kts | 231° |
| 2026-05-05 11:25 | 42.19446 | -21.17443 | 32375 ft | 494 kts | 231° |
| 2026-05-05 11:25 | 42.14722 | -21.24184 | 32378 ft | 495 kts | 231° |
| 2026-05-05 11:26 | 42.09979 | -21.30939 | 32378 ft | 496 kts | 231° |
| 2026-05-05 11:26 | 42.05226 | -21.37691 | 32375 ft | 497 kts | 231° |
| 2026-05-05 11:27 | 42.00462 | -21.44442 | 32379 ft | 498 kts | 231° |
| 2026-05-05 11:27 | 41.95681 | -21.51203 | 32380 ft | 499 kts | 231° |
| 2026-05-05 11:28 | 41.90885 | -21.57967 | 32382 ft | 500 kts | 231° |
| 2026-05-05 11:28 | 41.86080 | -21.64731 | 32383 ft | 501 kts | 231° |
| 2026-05-05 11:29 | 41.81295 | -21.71448 | 32383 ft | 502 kts | 231° |
| 2026-05-05 11:29 | 41.76463 | -21.78217 | 32377 ft | 503 kts | 231° |
| 2026-05-05 11:30 | 41.71617 | -21.84990 | 32401 ft | 504 kts | 231° |
| 2026-05-05 11:30 | 41.66764 | -21.91757 | 32400 ft | 504 kts | 231° |
| 2026-05-05 11:31 | 41.61902 | -21.98521 | 32391 ft | 505 kts | 231° |
| 2026-05-05 11:31 | 41.57024 | -22.05290 | 32392 ft | 506 kts | 231° |
| 2026-05-05 11:32 | 41.52137 | -22.12057 | 32391 ft | 507 kts | 231° |
| 2026-05-05 11:32 | 41.48066 | -22.17683 | 32395 ft | 507 kts | 231° |
| 2026-05-05 11:33 | 41.43156 | -22.24451 | 32390 ft | 508 kts | 231° |
| 2026-05-05 11:33 | 41.38233 | -22.31223 | 32392 ft | 509 kts | 231° |
| 2026-05-05 11:34 | 41.33298 | -22.37996 | 32389 ft | 510 kts | 231° |
| 2026-05-05 11:34 | 41.28354 | -22.44765 | 32390 ft | 511 kts | 231° |
| 2026-05-05 11:35 | 41.23392 | -22.51544 | 32395 ft | 512 kts | 231° |
| 2026-05-05 11:35 | 41.18414 | -22.58328 | 32394 ft | 513 kts | 231° |
| 2026-05-05 11:36 | 41.13431 | -22.65103 | 32395 ft | 514 kts | 231° |
| 2026-05-05 11:36 | 41.08431 | -22.71886 | 32394 ft | 515 kts | 231° |
| 2026-05-05 11:37 | 41.03416 | -22.78674 | 32392 ft | 516 kts | 231° |
| 2026-05-05 11:37 | 40.98426 | -22.85411 | 32398 ft | 516 kts | 231° |
| 2026-05-05 11:38 | 40.93390 | -22.92196 | 32398 ft | 517 kts | 231° |
| 2026-05-05 11:38 | 40.88342 | -22.98980 | 32401 ft | 518 kts | 231° |
| 2026-05-05 11:39 | 40.83284 | -23.05763 | 32399 ft | 519 kts | 231° |
| 2026-05-05 11:39 | 40.78210 | -23.12551 | 32395 ft | 519 kts | 231° |
| 2026-05-05 11:40 | 40.73127 | -23.19335 | 32407 ft | 520 kts | 231° |
| 2026-05-05 11:40 | 40.68036 | -23.26115 | 32405 ft | 521 kts | 231° |
| 2026-05-05 11:41 | 40.62932 | -23.32896 | 32397 ft | 522 kts | 231° |
| 2026-05-05 11:41 | 40.57816 | -23.39677 | 32401 ft | 522 kts | 231° |
| 2026-05-05 11:42 | 40.52692 | -23.46453 | 32400 ft | 522 kts | 231° |
| 2026-05-05 11:42 | 40.47561 | -23.53223 | 32401 ft | 523 kts | 231° |
| 2026-05-05 11:43 | 40.42421 | -23.59990 | 32404 ft | 524 kts | 231° |
| 2026-05-05 11:43 | 40.37270 | -23.66755 | 32399 ft | 524 kts | 231° |
| 2026-05-05 11:44 | 40.32112 | -23.73514 | 32397 ft | 524 kts | 231° |
| 2026-05-05 11:44 | 40.26952 | -23.80260 | 32407 ft | 524 kts | 231° |
| 2026-05-05 11:45 | 40.21781 | -23.87005 | 32404 ft | 525 kts | 231° |
| 2026-05-05 11:45 | 40.16606 | -23.93739 | 32403 ft | 525 kts | 231° |
| 2026-05-05 11:46 | 40.11427 | -24.00464 | 32402 ft | 525 kts | 231° |
| 2026-05-05 11:46 | 40.06241 | -24.07184 | 32403 ft | 525 kts | 231° |
| 2026-05-05 11:47 | 40.01087 | -24.13846 | 32405 ft | 525 kts | 231° |
| 2026-05-05 11:47 | 39.95888 | -24.20551 | 32400 ft | 526 kts | 231° |
| 2026-05-05 11:48 | 39.88084 | -24.30587 | 32402 ft | 526 kts | 230° |
| 2026-05-05 11:48 | 39.82872 | -24.37271 | 32401 ft | 526 kts | 230° |
| 2026-05-05 11:49 | 39.77658 | -24.43942 | 32403 ft | 526 kts | 230° |
| 2026-05-05 11:49 | 39.72439 | -24.50605 | 32403 ft | 526 kts | 230° |
| 2026-05-05 11:50 | 39.67214 | -24.57260 | 32404 ft | 526 kts | 230° |
| 2026-05-05 11:50 | 39.61989 | -24.63902 | 32406 ft | 526 kts | 230° |
| 2026-05-05 11:51 | 39.56757 | -24.70536 | 32400 ft | 526 kts | 230° |
| 2026-05-05 11:51 | 39.51527 | -24.77154 | 32404 ft | 526 kts | 230° |
| 2026-05-05 11:52 | 39.46297 | -24.83756 | 32404 ft | 525 kts | 230° |
| 2026-05-05 11:52 | 39.41060 | -24.90354 | 32402 ft | 525 kts | 230° |
| 2026-05-05 11:53 | 39.35821 | -24.96939 | 32405 ft | 525 kts | 230° |
| 2026-05-05 11:53 | 39.30617 | -25.03465 | 32398 ft | 525 kts | 230° |
| 2026-05-05 11:54 | 39.25378 | -25.10021 | 32402 ft | 525 kts | 230° |
| 2026-05-05 11:54 | 39.20134 | -25.16570 | 32401 ft | 525 kts | 229° |
| 2026-05-05 11:55 | 39.14885 | -25.23109 | 32395 ft | 525 kts | 229° |
| 2026-05-05 11:55 | 39.09635 | -25.29637 | 32393 ft | 525 kts | 229° |
| 2026-05-05 11:56 | 39.04380 | -25.36156 | 32408 ft | 525 kts | 229° |
| 2026-05-05 11:56 | 38.99122 | -25.42664 | 32402 ft | 525 kts | 229° |
| 2026-05-05 11:57 | 38.93859 | -25.49164 | 32400 ft | 525 kts | 229° |
| 2026-05-05 11:57 | 38.88594 | -25.55653 | 32401 ft | 525 kts | 229° |
| 2026-05-05 11:58 | 38.83326 | -25.62131 | 32398 ft | 524 kts | 229° |
| 2026-05-05 11:58 | 38.78054 | -25.68601 | 32400 ft | 524 kts | 229° |
| 2026-05-05 11:59 | 38.72779 | -25.75060 | 32397 ft | 525 kts | 229° |
| 2026-05-05 11:59 | 38.67501 | -25.81509 | 32397 ft | 525 kts | 229° |
| 2026-05-05 12:00 | 38.62218 | -25.87950 | 32402 ft | 525 kts | 229° |
| 2026-05-05 12:00 | 38.56932 | -25.94381 | 32396 ft | 525 kts | 229° |
| 2026-05-05 12:01 | 38.51645 | -26.00800 | 32398 ft | 524 kts | 229° |
| 2026-05-05 12:01 | 38.46351 | -26.07213 | 32400 ft | 524 kts | 229° |
| 2026-05-05 12:02 | 38.41059 | -26.13611 | 32401 ft | 524 kts | 228° |
| 2026-05-05 12:02 | 38.35758 | -26.20005 | 32398 ft | 524 kts | 228° |
| 2026-05-05 12:03 | 38.30459 | -26.26384 | 32396 ft | 524 kts | 228° |
| 2026-05-05 12:03 | 38.25158 | -26.32752 | 32404 ft | 524 kts | 228° |
| 2026-05-05 12:04 | 38.19857 | -26.39106 | 32393 ft | 524 kts | 228° |
| 2026-05-05 12:04 | 38.14546 | -26.45460 | 32396 ft | 524 kts | 228° |
| 2026-05-05 12:05 | 38.09231 | -26.51804 | 32392 ft | 525 kts | 228° |
| 2026-05-05 12:05 | 38.03910 | -26.58142 | 32403 ft | 525 kts | 228° |
| 2026-05-05 12:06 | 37.98620 | -26.64430 | 32403 ft | 525 kts | 228° |
| 2026-05-05 12:06 | 37.93286 | -26.70757 | 32393 ft | 525 kts | 228° |
| 2026-05-05 12:07 | 37.87954 | -26.77068 | 32394 ft | 525 kts | 228° |
| 2026-05-05 12:07 | 37.82617 | -26.83373 | 32394 ft | 525 kts | 228° |
| 2026-05-05 12:08 | 37.77274 | -26.89672 | 32392 ft | 525 kts | 228° |
| 2026-05-05 12:08 | 37.71934 | -26.95954 | 32393 ft | 525 kts | 227° |
| 2026-05-05 12:09 | 37.66586 | -27.02231 | 32392 ft | 525 kts | 227° |
| 2026-05-05 12:09 | 37.61237 | -27.08498 | 32386 ft | 524 kts | 227° |
| 2026-05-05 12:10 | 37.55890 | -27.14750 | 32389 ft | 524 kts | 227° |
| 2026-05-05 12:10 | 37.50539 | -27.20993 | 32390 ft | 525 kts | 227° |
| 2026-05-05 12:11 | 37.45178 | -27.27235 | 32389 ft | 525 kts | 227° |
| 2026-05-05 12:11 | 37.39816 | -27.33467 | 32392 ft | 525 kts | 227° |
| 2026-05-05 12:12 | 37.34451 | -27.39687 | 32390 ft | 525 kts | 227° |
| 2026-05-05 12:12 | 37.29080 | -27.45903 | 32387 ft | 525 kts | 227° |
| 2026-05-05 12:13 | 37.23707 | -27.52109 | 32387 ft | 525 kts | 227° |
| 2026-05-05 12:13 | 37.18331 | -27.58305 | 32386 ft | 525 kts | 227° |
| 2026-05-05 12:14 | 37.12953 | -27.64491 | 32385 ft | 525 kts | 227° |
| 2026-05-05 12:14 | 37.07563 | -27.70678 | 32389 ft | 525 kts | 227° |
| 2026-05-05 12:15 | 37.02178 | -27.76847 | 32383 ft | 525 kts | 227° |
| 2026-05-05 12:15 | 36.96787 | -27.83011 | 32388 ft | 525 kts | 227° |
| 2026-05-05 12:16 | 36.91384 | -27.89176 | 32384 ft | 525 kts | 227° |
| 2026-05-05 12:16 | 36.85985 | -27.95323 | 32385 ft | 526 kts | 227° |
| 2026-05-05 12:17 | 36.80575 | -28.01471 | 32382 ft | 526 kts | 227° |
| 2026-05-05 12:17 | 36.75164 | -28.07608 | 32382 ft | 526 kts | 227° |
| 2026-05-05 12:18 | 36.69756 | -28.13731 | 32383 ft | 526 kts | 227° |
| 2026-05-05 12:18 | 36.65252 | -28.18819 | 32378 ft | 526 kts | 227° |
| 2026-05-05 12:19 | 36.59839 | -28.24924 | 32380 ft | 525 kts | 227° |
| 2026-05-05 12:19 | 36.53535 | -28.32019 | 32378 ft | 526 kts | 227° |
| 2026-05-05 12:20 | 36.48991 | -28.37123 | 32376 ft | 526 kts | 227° |
| 2026-05-05 12:20 | 36.43557 | -28.43215 | 32372 ft | 526 kts | 227° |
| 2026-05-05 12:21 | 36.38125 | -28.49293 | 32372 ft | 526 kts | 227° |
| 2026-05-05 12:21 | 36.32689 | -28.55364 | 32369 ft | 526 kts | 227° |
| 2026-05-05 12:22 | 36.27247 | -28.61430 | 32372 ft | 526 kts | 227° |
| 2026-05-05 12:22 | 36.21799 | -28.67490 | 32377 ft | 526 kts | 227° |
| 2026-05-05 12:23 | 36.16348 | -28.73542 | 32370 ft | 526 kts | 227° |
| 2026-05-05 12:23 | 36.10893 | -28.79587 | 32371 ft | 527 kts | 227° |
| 2026-05-05 12:24 | 36.05432 | -28.85626 | 32378 ft | 527 kts | 227° |
| 2026-05-05 12:24 | 35.99990 | -28.91633 | 32358 ft | 527 kts | 227° |
| 2026-05-05 12:25 | 35.94505 | -28.97674 | 32372 ft | 526 kts | 227° |
| 2026-05-05 12:25 | 35.89038 | -29.03685 | 32369 ft | 526 kts | 227° |
| 2026-05-05 12:26 | 35.83570 | -29.09686 | 32368 ft | 526 kts | 227° |
| 2026-05-05 12:26 | 35.78141 | -29.15633 | 32367 ft | 526 kts | 227° |
| 2026-05-05 12:27 | 35.72672 | -29.21612 | 32363 ft | 526 kts | 227° |
| 2026-05-05 12:27 | 35.67199 | -29.27583 | 32362 ft | 526 kts | 227° |
| 2026-05-05 12:28 | 35.61721 | -29.33549 | 32360 ft | 526 kts | 227° |
| 2026-05-05 12:28 | 35.56243 | -29.39503 | 32360 ft | 526 kts | 227° |
| 2026-05-05 12:29 | 35.50755 | -29.45456 | 32361 ft | 526 kts | 227° |
| 2026-05-05 12:29 | 35.45270 | -29.51396 | 32357 ft | 526 kts | 226° |
| 2026-05-05 12:30 | 35.39773 | -29.57337 | 32363 ft | 526 kts | 226° |
| 2026-05-05 12:30 | 35.34274 | -29.63270 | 32356 ft | 527 kts | 226° |
| 2026-05-05 12:31 | 35.28772 | -29.69194 | 32359 ft | 527 kts | 226° |
| 2026-05-05 12:31 | 35.23269 | -29.75109 | 32353 ft | 527 kts | 226° |
| 2026-05-05 12:32 | 35.17751 | -29.81028 | 32355 ft | 527 kts | 226° |
| 2026-05-05 12:32 | 35.12235 | -29.86935 | 32353 ft | 527 kts | 226° |
| 2026-05-05 12:33 | 35.06716 | -29.92834 | 32351 ft | 527 kts | 226° |
| 2026-05-05 12:33 | 35.01195 | -29.98727 | 32351 ft | 527 kts | 227° |
| 2026-05-05 12:34 | 34.96097 | -30.05051 | 32352 ft | 521 kts | 234° |
| 2026-05-05 12:34 | 34.91292 | -30.11578 | 32345 ft | 521 kts | 234° |
| 2026-05-05 12:35 | 34.86441 | -30.18144 | 32347 ft | 522 kts | 234° |
| 2026-05-05 12:35 | 34.81557 | -30.24687 | 32347 ft | 522 kts | 233° |
| 2026-05-05 12:36 | 34.76653 | -30.31218 | 32347 ft | 523 kts | 233° |
| 2026-05-05 12:36 | 34.71748 | -30.37736 | 32345 ft | 523 kts | 233° |
| 2026-05-05 12:37 | 34.66834 | -30.44257 | 32342 ft | 523 kts | 233° |
| 2026-05-05 12:37 | 34.61917 | -30.50771 | 32340 ft | 523 kts | 233° |
| 2026-05-05 12:38 | 34.57000 | -30.57274 | 32350 ft | 523 kts | 233° |
| 2026-05-05 12:38 | 34.52086 | -30.63760 | 32348 ft | 522 kts | 233° |
| 2026-05-05 12:39 | 34.47166 | -30.70243 | 32344 ft | 522 kts | 233° |
| 2026-05-05 12:39 | 34.42250 | -30.76708 | 32342 ft | 522 kts | 233° |
| 2026-05-05 12:40 | 34.37329 | -30.83167 | 32336 ft | 522 kts | 233° |
| 2026-05-05 12:40 | 34.32440 | -30.89573 | 32339 ft | 521 kts | 233° |
| 2026-05-05 12:41 | 34.27514 | -30.96014 | 32338 ft | 522 kts | 233° |
| 2026-05-05 12:41 | 34.22586 | -31.02447 | 32334 ft | 522 kts | 233° |
| 2026-05-05 12:42 | 34.17651 | -31.08877 | 32336 ft | 522 kts | 233° |
| 2026-05-05 12:42 | 34.12711 | -31.15302 | 32334 ft | 522 kts | 233° |
| 2026-05-05 12:43 | 34.07762 | -31.21727 | 32334 ft | 523 kts | 233° |
| 2026-05-05 12:43 | 34.02805 | -31.28150 | 32336 ft | 523 kts | 233° |
| 2026-05-05 12:44 | 33.97835 | -31.34577 | 32330 ft | 524 kts | 233° |
| 2026-05-05 12:44 | 33.92866 | -31.40992 | 32331 ft | 524 kts | 233° |
| 2026-05-05 12:45 | 33.87894 | -31.47399 | 32331 ft | 524 kts | 233° |
| 2026-05-05 12:45 | 33.82915 | -31.53802 | 32330 ft | 524 kts | 233° |
| 2026-05-05 12:46 | 33.77935 | -31.60195 | 32329 ft | 524 kts | 233° |
| 2026-05-05 12:46 | 33.72950 | -31.66584 | 32329 ft | 524 kts | 233° |
| 2026-05-05 12:47 | 33.67964 | -31.72962 | 32327 ft | 524 kts | 232° |
| 2026-05-05 12:47 | 33.63010 | -31.79288 | 32326 ft | 524 kts | 232° |
| 2026-05-05 12:48 | 33.58015 | -31.85655 | 32319 ft | 524 kts | 232° |
| 2026-05-05 12:48 | 33.53018 | -31.92012 | 32322 ft | 524 kts | 232° |
| 2026-05-05 12:49 | 33.48016 | -31.98365 | 32321 ft | 524 kts | 232° |
| 2026-05-05 12:49 | 33.43005 | -32.04717 | 32319 ft | 524 kts | 233° |
| 2026-05-05 12:50 | 33.37996 | -32.11056 | 32318 ft | 524 kts | 232° |
| 2026-05-05 12:50 | 33.32981 | -32.17390 | 32311 ft | 525 kts | 233° |
| 2026-05-05 12:51 | 33.27959 | -32.23723 | 32314 ft | 525 kts | 232° |
| 2026-05-05 12:51 | 33.22933 | -32.30048 | 32319 ft | 525 kts | 232° |
| 2026-05-05 12:52 | 33.17900 | -32.36372 | 32318 ft | 525 kts | 232° |
| 2026-05-05 12:52 | 33.12869 | -32.42682 | 32325 ft | 525 kts | 232° |
| 2026-05-05 12:53 | 33.07836 | -32.48983 | 32318 ft | 524 kts | 232° |
| 2026-05-05 12:53 | 33.02798 | -32.55278 | 32316 ft | 524 kts | 232° |
| 2026-05-05 12:54 | 32.95250 | -32.64690 | 32310 ft | 524 kts | 232° |
| 2026-05-05 12:55 | 32.90218 | -32.70950 | 32310 ft | 523 kts | 232° |
| 2026-05-05 12:55 | 32.85187 | -32.77199 | 32311 ft | 523 kts | 232° |
| 2026-05-05 12:56 | 32.80158 | -32.83434 | 32306 ft | 522 kts | 232° |
| 2026-05-05 12:56 | 32.75123 | -32.89667 | 32303 ft | 522 kts | 232° |
| 2026-05-05 12:57 | 32.70085 | -32.95891 | 32305 ft | 522 kts | 232° |
| 2026-05-05 12:57 | 32.65052 | -33.02099 | 32305 ft | 522 kts | 232° |
| 2026-05-05 12:58 | 32.60010 | -33.08306 | 32307 ft | 522 kts | 232° |
| 2026-05-05 12:58 | 32.55000 | -33.14464 | 32303 ft | 522 kts | 232° |
| 2026-05-05 12:59 | 32.49955 | -33.20655 | 32304 ft | 522 kts | 232° |
| 2026-05-05 12:59 | 32.44906 | -33.26839 | 32302 ft | 522 kts | 231° |
| 2026-05-05 13:00 | 32.37333 | -33.36095 | 32298 ft | 521 kts | 231° |
| 2026-05-05 13:01 | 32.27244 | -33.48390 | 32300 ft | 520 kts | 231° |
| 2026-05-05 13:01 | 32.22199 | -33.54523 | 32299 ft | 520 kts | 231° |
| 2026-05-05 13:02 | 32.17154 | -33.60645 | 32306 ft | 520 kts | 231° |
| 2026-05-05 13:02 | 32.12113 | -33.66750 | 32304 ft | 519 kts | 231° |
| 2026-05-05 13:03 | 32.07075 | -33.72844 | 32296 ft | 519 kts | 231° |
| 2026-05-05 13:03 | 32.02031 | -33.78934 | 32300 ft | 519 kts | 231° |
| 2026-05-05 13:04 | 31.96988 | -33.85012 | 32291 ft | 518 kts | 231° |
| 2026-05-05 13:04 | 31.91944 | -33.91082 | 32292 ft | 518 kts | 231° |
| 2026-05-05 13:05 | 31.86899 | -33.97143 | 32293 ft | 518 kts | 231° |
| 2026-05-05 13:05 | 31.81889 | -34.03150 | 32290 ft | 518 kts | 231° |
| 2026-05-05 13:06 | 31.76848 | -34.09186 | 32290 ft | 517 kts | 231° |
| 2026-05-05 13:06 | 31.71809 | -34.15210 | 32289 ft | 516 kts | 231° |
| 2026-05-05 13:07 | 31.67586 | -34.20249 | 32289 ft | 516 kts | 231° |
| 2026-05-05 13:07 | 31.62559 | -34.26240 | 32292 ft | 515 kts | 231° |
| 2026-05-05 13:08 | 31.57541 | -34.32210 | 32288 ft | 514 kts | 231° |
| 2026-05-05 13:08 | 31.52526 | -34.38169 | 32278 ft | 513 kts | 230° |
| 2026-05-05 13:09 | 31.47543 | -34.44078 | 32280 ft | 513 kts | 230° |
| 2026-05-05 13:09 | 31.41686 | -34.51013 | 32284 ft | 512 kts | 230° |
| 2026-05-05 13:10 | 31.37515 | -34.55943 | 32285 ft | 513 kts | 230° |
| 2026-05-05 13:10 | 31.32498 | -34.61865 | 32279 ft | 513 kts | 230° |
| 2026-05-05 13:11 | 31.27473 | -34.67786 | 32280 ft | 513 kts | 230° |
| 2026-05-05 13:11 | 31.22441 | -34.73707 | 32278 ft | 513 kts | 230° |
| 2026-05-05 13:12 | 31.17406 | -34.79621 | 32279 ft | 513 kts | 230° |
| 2026-05-05 13:12 | 31.12371 | -34.85526 | 32276 ft | 513 kts | 230° |
| 2026-05-05 13:13 | 31.07334 | -34.91425 | 32275 ft | 513 kts | 230° |
| 2026-05-05 13:13 | 31.02298 | -34.97315 | 32276 ft | 512 kts | 230° |
| 2026-05-05 13:14 | 30.97415 | -35.03328 | 32282 ft | 509 kts | 233° |
| 2026-05-05 13:14 | 30.92764 | -35.09534 | 32272 ft | 508 kts | 234° |
| 2026-05-05 13:15 | 30.88129 | -35.15746 | 32274 ft | 508 kts | 234° |
| 2026-05-05 13:15 | 30.83480 | -35.21935 | 32273 ft | 508 kts | 233° |
| 2026-05-05 13:16 | 30.78819 | -35.28106 | 32290 ft | 510 kts | 233° |
| 2026-05-05 13:16 | 30.76468 | -35.31215 | 32480 ft | 513 kts | 233° |
| 2026-05-05 13:16 | 30.74110 | -35.34329 | 32882 ft | 512 kts | 233° |
| 2026-05-05 13:17 | 30.71759 | -35.37427 | 33344 ft | 509 kts | 233° |
| 2026-05-05 13:17 | 30.69422 | -35.40506 | 33756 ft | 508 kts | 233° |
| 2026-05-05 13:17 | 30.67089 | -35.43578 | 34097 ft | 507 kts | 233° |
| 2026-05-05 13:17 | 30.64751 | -35.46658 | 34219 ft | 510 kts | 233° |
| 2026-05-05 13:18 | 30.60050 | -35.52843 | 34259 ft | 510 kts | 233° |
| 2026-05-05 13:18 | 30.55374 | -35.58980 | 34263 ft | 508 kts | 233° |
| 2026-05-05 13:19 | 30.50689 | -35.65121 | 34278 ft | 507 kts | 233° |
| 2026-05-05 13:19 | 30.46017 | -35.71236 | 34274 ft | 506 kts | 233° |
| 2026-05-05 13:20 | 30.41341 | -35.77347 | 34266 ft | 507 kts | 233° |
| 2026-05-05 13:20 | 30.36662 | -35.83453 | 34265 ft | 507 kts | 232° |
| 2026-05-05 13:21 | 30.31977 | -35.89556 | 34266 ft | 507 kts | 232° |
| 2026-05-05 13:21 | 30.27283 | -35.95661 | 34263 ft | 508 kts | 232° |
| 2026-05-05 13:22 | 30.22585 | -36.01762 | 34263 ft | 508 kts | 232° |
| 2026-05-05 13:22 | 30.17888 | -36.07852 | 34262 ft | 507 kts | 232° |
| 2026-05-05 13:23 | 30.13189 | -36.13935 | 34260 ft | 507 kts | 232° |
| 2026-05-05 13:23 | 30.08526 | -36.19963 | 34264 ft | 506 kts | 232° |
| 2026-05-05 13:24 | 30.03833 | -36.26019 | 34261 ft | 506 kts | 232° |
| 2026-05-05 13:24 | 29.99138 | -36.32069 | 34259 ft | 506 kts | 232° |
| 2026-05-05 13:25 | 29.94449 | -36.38103 | 34259 ft | 505 kts | 232° |
| 2026-05-05 13:25 | 29.89754 | -36.44135 | 34255 ft | 505 kts | 232° |
| 2026-05-05 13:26 | 29.85056 | -36.50161 | 34255 ft | 505 kts | 232° |
| 2026-05-05 13:26 | 29.80359 | -36.56178 | 34257 ft | 506 kts | 232° |
| 2026-05-05 13:27 | 29.75649 | -36.62201 | 34255 ft | 506 kts | 231° |
| 2026-05-05 13:27 | 29.70938 | -36.68217 | 34253 ft | 506 kts | 231° |
| 2026-05-05 13:28 | 29.66224 | -36.74226 | 34252 ft | 506 kts | 231° |
| 2026-05-05 13:28 | 29.61508 | -36.80231 | 34252 ft | 506 kts | 231° |
| 2026-05-05 13:29 | 29.56790 | -36.86227 | 34256 ft | 506 kts | 231° |
| 2026-05-05 13:29 | 29.52071 | -36.92217 | 34252 ft | 506 kts | 231° |
| 2026-05-05 13:30 | 29.47350 | -36.98200 | 34253 ft | 506 kts | 231° |
| 2026-05-05 13:30 | 29.42624 | -37.04179 | 34251 ft | 505 kts | 231° |
| 2026-05-05 13:31 | 29.37900 | -37.10149 | 34250 ft | 505 kts | 231° |
| 2026-05-05 13:31 | 29.33172 | -37.16114 | 34249 ft | 505 kts | 231° |
| 2026-05-05 13:32 | 29.28444 | -37.22071 | 34247 ft | 505 kts | 231° |
| 2026-05-05 13:32 | 29.23742 | -37.27985 | 34251 ft | 505 kts | 231° |
| 2026-05-05 13:33 | 29.18980 | -37.33966 | 34242 ft | 505 kts | 231° |
| 2026-05-05 13:33 | 29.14275 | -37.39867 | 34253 ft | 505 kts | 230° |
| 2026-05-05 13:34 | 29.09509 | -37.45836 | 34250 ft | 505 kts | 230° |
| 2026-05-05 13:34 | 29.04801 | -37.51723 | 34242 ft | 505 kts | 230° |
| 2026-05-05 13:35 | 29.00062 | -37.57641 | 34244 ft | 505 kts | 230° |
| 2026-05-05 13:35 | 28.95320 | -37.63553 | 34244 ft | 505 kts | 230° |